createdAt,value
2018-02-04T00:04:03.468Z,16.6
2018-02-04T00:19:03.402Z,19.7
2018-02-04T00:34:02.987Z,20.7
2018-02-04T00:54:03.104Z,23.3
2018-02-04T01:09:02.989Z,23.7
2018-02-04T01:24:02.994Z,23.7
2018-02-04T01:59:07.349Z,16.9
2018-02-04T02:14:07.189Z,18.5
2018-02-04T02:29:07.503Z,19.1
2018-02-04T02:49:07.388Z,21.4
2018-02-04T03:04:07.421Z,20.2
2018-02-04T03:19:07.226Z,18.5
2018-02-04T03:39:07.255Z,18.9
2018-02-04T03:54:07.405Z,14.3
2018-02-04T04:09:07.413Z,19.5
2018-02-04T04:24:07.369Z,19
2018-02-04T04:44:07.556Z,21.9
2018-02-04T04:59:07.394Z,21.3
2018-02-04T05:14:07.429Z,24.3
2018-02-04T05:34:07.435Z,24.5
2018-02-04T05:49:07.484Z,23.4
2018-02-04T06:04:07.488Z,28
2018-02-04T06:19:07.668Z,26.4
2018-02-04T06:39:09.956Z,26.6
2018-02-04T07:09:10.164Z,28.1
2018-02-04T07:24:09.995Z,32.3
2018-02-04T07:44:09.985Z,34.2
2018-02-04T07:59:09.999Z,40.8
2018-02-04T08:14:10.045Z,35.2
2018-02-04T09:04:10.286Z,33.3
2018-02-04T09:19:10.443Z,41.9
2018-02-04T09:39:10.336Z,36
2018-02-04T09:54:10.317Z,42.6
2018-02-04T10:09:10.323Z,33.1
2018-02-04T10:29:10.320Z,38.4
2018-02-04T10:44:10.443Z,39.3
2018-02-04T10:59:10.334Z,31.4
2018-02-04T11:14:11.741Z,30.5
2018-02-04T11:34:10.384Z,25.1
2018-02-04T11:49:14.820Z,17.6
2018-02-04T12:04:14.715Z,17.7
2018-02-04T12:24:16.137Z,16.3
2018-02-04T12:39:16.148Z,14.9
2018-02-04T12:54:15.066Z,17.4
2018-02-04T13:09:14.942Z,11.8
2018-02-04T13:29:14.955Z,8.9
2018-02-04T13:44:16.688Z,14.6
2018-02-04T13:59:15.808Z,14.9
2018-02-04T14:19:18.042Z,16.9
2018-02-04T14:34:15.005Z,20.8
2018-02-04T14:49:15.348Z,16.8
2018-02-04T15:04:15.506Z,19.7
2018-02-04T15:24:15.138Z,28.5
2018-02-04T15:39:15.134Z,23.9
2018-02-04T16:29:20.282Z,27.9
2018-02-04T16:44:15.325Z,30.7
2018-02-04T16:59:15.274Z,31.3
2018-02-04T17:19:15.340Z,37.3
2018-02-04T17:34:15.580Z,38.8
2018-02-04T17:49:15.536Z,35.2
2018-02-04T18:09:15.573Z,37.7
2018-02-04T18:24:15.560Z,34.2
2018-02-04T18:39:15.681Z,34.2
2018-02-04T18:54:15.880Z,35.8
2018-02-04T19:14:15.570Z,43.8
2018-02-04T19:29:15.780Z,44.7
2018-02-04T20:04:15.923Z,42.4
2018-02-04T20:19:16.855Z,29.2
2018-02-04T20:34:16.135Z,37.7
2018-02-04T20:49:15.850Z,57
2018-02-04T21:09:15.737Z,92.1
2018-02-04T21:24:19.835Z,45.4
2018-02-04T21:39:20.251Z,44.7
2018-02-04T21:54:20.254Z,37.3
2018-02-04T22:29:20.101Z,42.4
2018-02-04T22:44:20.096Z,76
2018-02-04T23:04:20.372Z,57.8
2018-02-04T23:19:20.139Z,59.1
2018-02-04T23:34:20.168Z,61.1
2018-02-04T23:49:20.151Z,65.5
